Time;durP1;ratioP1;P1;durP2;ratioP2;P2;SDS_P1;SDS_P2;PMS_P1;PMS_P2;Temp;Humidity;BMP_temperature;BMP_pressure;BME280_temperature;BME280_humidity;BME280_pressure;Samples;Min_cycle;Max_cycle;Signal;HPM_P1;HPM_P2
2022/11/29 00:01:13;;;;;;;0.40;0.40;;;4.00;99.90;;;;;;4964165;28;20943;-80
2022/11/29 00:03:39;;;;;;;0.30;0.30;;;4.00;99.90;;;;;;4953041;28;20455;-80
2022/11/29 00:06:06;;;;;;;0.40;0.40;;;4.00;99.90;;;;;;4987127;28;21103;-80
2022/11/29 00:08:34;;;;;;;0.33;0.33;;;3.90;99.90;;;;;;4925513;28;20195;-80
2022/11/29 00:12:10;;;;;;;0.30;0.30;;;4.00;99.90;;;;;;4942605;28;20443;-80
2022/11/29 00:14:00;;;;;;;0.30;0.30;;;4.00;99.90;;;;;;4945613;28;21407;-80
2022/11/29 00:16:26;;;;;;;0.40;0.40;;;3.90;99.90;;;;;;4997367;28;20556;-81
2022/11/29 00:18:51;;;;;;;0.30;0.30;;;3.90;99.90;;;;;;4937202;28;20591;-80
2022/11/29 00:21:17;;;;;;;0.30;0.30;;;3.90;99.90;;;;;;4970671;28;20184;-80
2022/11/29 00:23:42;;;;;;;0.30;0.30;;;4.00;99.90;;;;;;4930340;28;20196;-81
2022/11/29 00:26:08;;;;;;;0.20;0.20;;;4.00;99.90;;;;;;4944774;28;20639;-80
2022/11/29 00:28:35;;;;;;;0.30;0.30;;;4.00;99.90;;;;;;4959672;28;20183;-80
2022/11/29 00:31:21;;;;;;;0.30;0.30;;;4.00;99.90;;;;;;4991827;28;20854;-80
2022/11/29 00:33:47;;;;;;;0.30;0.30;;;4.00;99.90;;;;;;4919499;28;20959;-80
2022/11/29 00:36:13;;;;;;;0.30;0.30;;;3.90;99.90;;;;;;4991555;28;20516;-80
2022/11/29 00:38:40;;;;;;;0.30;0.30;;;3.90;99.90;;;;;;4925385;28;20482;-81
2022/11/29 00:41:06;;;;;;;0.30;0.30;;;4.00;99.90;;;;;;4960721;28;20459;-80
2022/11/29 00:43:32;;;;;;;0.23;0.23;;;4.00;99.90;;;;;;4927113;28;20451;-80
2022/11/29 00:45:57;;;;;;;0.30;0.30;;;3.90;99.90;;;;;;4935487;28;20458;-80
2022/11/29 00:48:23;;;;;;;0.30;0.30;;;3.90;99.90;;;;;;4948762;28;20196;-80
2022/11/29 00:50:49;;;;;;;0.20;0.20;;;3.90;99.90;;;;;;4960026;28;20195;-80
2022/11/29 00:53:15;;;;;;;0.30;0.30;;;3.90;99.90;;;;;;4991552;28;20675;-80
2022/11/29 00:55:42;;;;;;;0.50;0.50;;;3.90;99.90;;;;;;4996103;28;20196;-80
2022/11/29 00:58:08;;;;;;;0.30;0.30;;;3.90;99.90;;;;;;4988766;28;20512;-80
2022/11/29 01:00:33;;;;;;;0.20;0.20;;;3.90;99.90;;;;;;4989655;28;20467;-80
2022/11/29 01:03:00;;;;;;;0.40;0.40;;;3.90;99.90;;;;;;4990955;28;20188;-80
2022/11/29 01:05:25;;;;;;;0.27;0.27;;;3.90;99.90;;;;;;4951211;28;20200;-81
2022/11/29 01:07:51;;;;;;;0.33;0.33;;;3.90;99.90;;;;;;5003762;28;20448;-80
2022/11/29 01:10:16;;;;;;;0.23;0.23;;;3.90;99.90;;;;;;4928135;28;20668;-79
2022/11/29 01:12:42;;;;;;;0.30;0.30;;;3.90;99.90;;;;;;4963123;28;20195;-80
2022/11/29 01:15:08;;;;;;;0.30;0.30;;;3.90;99.90;;;;;;4918941;28;20659;-80
2022/11/29 01:17:35;;;;;;;0.30;0.30;;;3.90;99.90;;;;;;4935707;28;20234;-80
2022/11/29 01:20:02;;;;;;;0.30;0.30;;;3.90;99.90;;;;;;4960963;28;20487;-80
2022/11/29 01:22:28;;;;;;;0.30;0.30;;;3.90;99.90;;;;;;4998153;28;20453;-80
2022/11/29 01:24:53;;;;;;;0.20;0.20;;;4.00;99.90;;;;;;4919584;28;20421;-80
2022/11/29 01:27:19;;;;;;;0.30;0.30;;;4.00;99.90;;;;;;4964525;28;20206;-81
2022/11/29 01:29:44;;;;;;;0.30;0.30;;;4.00;99.90;;;;;;4941119;28;20656;-81
2022/11/29 01:32:11;;;;;;;0.40;0.40;;;4.00;99.90;;;;;;4961735;28;20195;-81
2022/11/29 01:34:37;;;;;;;0.30;0.30;;;4.00;99.90;;;;;;4982730;28;20262;-81
2022/11/29 01:37:03;;;;;;;0.30;0.30;;;4.00;99.90;;;;;;4964441;28;20838;-80
2022/11/29 01:39:28;;;;;;;0.30;0.30;;;4.00;99.90;;;;;;4936701;28;20498;-80
2022/11/29 01:41:54;;;;;;;0.30;0.30;;;4.00;99.90;;;;;;4969278;28;20184;-80
2022/11/29 01:44:19;;;;;;;0.40;0.40;;;4.00;99.90;;;;;;4936105;28;20238;-80
2022/11/29 01:46:46;;;;;;;0.40;0.40;;;4.00;99.90;;;;;;4989407;28;20199;-80
2022/11/29 01:49:17;;;;;;;0.30;0.30;;;4.00;99.90;;;;;;4926248;28;20257;-80
2022/11/29 01:51:47;;;;;;;0.30;0.30;;;4.00;99.90;;;;;;4954278;28;20531;-80
2022/11/29 01:54:13;;;;;;;0.30;0.30;;;4.00;99.90;;;;;;4983990;28;20492;-80
2022/11/29 01:56:40;;;;;;;0.30;0.30;;;4.00;99.90;;;;;;4934372;28;20956;-80
2022/11/29 01:59:13;;;;;;;0.20;0.20;;;4.00;99.90;;;;;;4950950;28;20887;-80
2022/11/29 02:01:39;;;;;;;0.20;0.20;;;3.90;99.90;;;;;;4982555;28;21162;-80
2022/11/29 02:04:05;;;;;;;0.27;0.27;;;4.00;99.90;;;;;;4930668;28;20482;-81
2022/11/29 02:06:31;;;;;;;0.23;0.23;;;4.00;99.90;;;;;;5010487;28;20568;-81
2022/11/29 02:08:56;;;;;;;0.40;0.40;;;3.90;99.90;;;;;;5007971;28;20464;-80
2022/11/29 02:11:45;;;;;;;0.20;0.20;;;4.00;99.90;;;;;;4994574;28;20191;-81
2022/11/29 02:14:22;;;;;;;0.30;0.30;;;3.90;99.90;;;;;;4932414;28;20195;-80
2022/11/29 02:17:13;;;;;;;0.33;0.33;;;4.00;99.90;;;;;;4941531;28;20969;-79
2022/11/29 02:20:14;;;;;;;0.30;0.30;;;3.90;99.90;;;;;;4913993;29;20854;-81
2022/11/29 02:23:26;;;;;;;0.30;0.30;;;3.90;99.90;;;;;;4999650;28;20430;-80
2022/11/29 02:26:17;;;;;;;0.30;0.30;;;3.90;99.90;;;;;;4931568;28;20515;-81
2022/11/29 02:28:57;;;;;;;0.40;0.40;;;3.90;99.90;;;;;;4970925;28;20455;-80
2022/11/29 02:31:42;;;;;;;0.40;0.40;;;3.90;99.90;;;;;;5010872;28;20455;-81
2022/11/29 02:34:22;;;;;;;0.30;0.30;;;3.90;99.90;;;;;;4996591;28;20443;-81
2022/11/29 02:37:19;;;;;;;0.30;0.30;;;3.90;99.90;;;;;;4932385;28;20458;-80
2022/11/29 02:40:15;;;;;;;0.30;0.30;;;3.90;99.90;;;;;;4924442;28;20850;-81
2022/11/29 02:42:49;;;;;;;0.30;0.30;;;3.90;99.90;;;;;;5012157;28;20450;-80
2022/11/29 02:45:30;;;;;;;0.30;0.30;;;3.90;99.90;;;;;;4944313;28;20456;-80
2022/11/29 02:48:07;;;;;;;0.40;0.40;;;3.90;99.90;;;;;;4928029;28;20450;-81
2022/11/29 02:50:48;;;;;;;0.40;0.40;;;3.90;99.90;;;;;;4946581;28;20461;-80
2022/11/29 02:53:21;;;;;;;0.30;0.30;;;3.90;99.90;;;;;;5004770;28;20584;-80
2022/11/29 02:56:02;;;;;;;0.30;0.30;;;3.90;99.90;;;;;;4970547;28;20467;-80
2022/11/29 02:58:40;;;;;;;0.37;0.37;;;3.90;99.90;;;;;;5006651;28;20474;-81
2022/11/29 03:01:18;;;;;;;0.40;0.40;;;3.90;99.90;;;;;;5010545;28;20454;-80
2022/11/29 03:04:21;;;;;;;0.40;0.40;;;3.90;99.90;;;;;;4988461;28;20449;-80
2022/11/29 03:07:01;;;;;;;0.40;0.40;;;3.90;99.90;;;;;;4925462;28;20508;-81
2022/11/29 03:09:42;;;;;;;0.30;0.30;;;3.90;99.90;;;;;;4947214;28;20437;-81
2022/11/29 03:12:39;;;;;;;0.30;0.30;;;3.90;99.90;;;;;;4949947;28;20457;-81
2022/11/29 03:15:27;;;;;;;0.30;0.30;;;3.90;99.90;;;;;;4936531;28;20549;-80
2022/11/29 03:18:15;;;;;;;0.40;0.40;;;3.90;99.90;;;;;;4915961;28;20439;-80
2022/11/29 03:20:52;;;;;;;0.40;0.40;;;3.90;99.90;;;;;;4931450;28;20551;-81
2022/11/29 03:23:26;;;;;;;0.30;0.30;;;3.90;99.90;;;;;;4934148;28;20455;-80
2022/11/29 03:26:10;;;;;;;0.40;0.40;;;3.90;99.90;;;;;;5013850;28;20525;-81
2022/11/29 03:28:55;;;;;;;0.30;0.30;;;3.90;99.90;;;;;;5004804;28;20565;-81
2022/11/29 03:31:34;;;;;;;0.40;0.40;;;3.90;99.90;;;;;;4994525;28;20466;-80
2022/11/29 03:34:20;;;;;;;0.40;0.40;;;3.90;99.90;;;;;;4928927;28;20525;-80
2022/11/29 03:36:55;;;;;;;0.30;0.30;;;3.90;99.90;;;;;;4966803;28;20454;-80
2022/11/29 03:39:40;;;;;;;0.30;0.30;;;3.90;99.90;;;;;;4989651;28;20486;-81
2022/11/29 03:42:18;;;;;;;0.30;0.30;;;3.90;99.90;;;;;;4931469;28;21021;-80
2022/11/29 03:45:10;;;;;;;0.30;0.30;;;3.90;99.90;;;;;;4990900;28;20459;-81
2022/11/29 03:47:53;;;;;;;0.40;0.40;;;3.90;99.90;;;;;;4996634;28;20509;-80
2022/11/29 03:50:24;;;;;;;0.30;0.30;;;3.90;99.90;;;;;;4938683;28;20515;-80
2022/11/29 03:52:59;;;;;;;0.50;0.50;;;3.90;99.90;;;;;;5003425;28;21492;-80
2022/11/29 03:55:32;;;;;;;0.50;0.50;;;3.90;99.90;;;;;;5004246;28;20441;-81
2022/11/29 03:58:14;;;;;;;0.40;0.40;;;3.90;99.90;;;;;;4942006;28;20970;-80
2022/11/29 04:01:09;;;;;;;0.30;0.30;;;4.00;99.90;;;;;;4997576;28;20558;-80
2022/11/29 04:03:54;;;;;;;0.40;0.40;;;4.00;99.90;;;;;;4933142;28;20577;-80
2022/11/29 04:06:50;;;;;;;0.40;0.40;;;3.90;99.90;;;;;;4963070;28;20942;-80
2022/11/29 04:09:50;;;;;;;0.33;0.33;;;4.00;99.90;;;;;;5002971;28;20458;-80
2022/11/29 04:12:25;;;;;;;0.33;0.33;;;3.90;99.90;;;;;;4937072;28;20488;-80
2022/11/29 04:15:15;;;;;;;0.40;0.40;;;4.00;99.90;;;;;;5008225;28;20443;-80
2022/11/29 04:18:25;;;;;;;0.40;0.40;;;4.00;99.90;;;;;;5012658;28;20439;-80
2022/11/29 04:21:29;;;;;;;0.37;0.37;;;4.00;99.90;;;;;;4994374;28;20760;-80
2022/11/29 04:24:10;;;;;;;0.30;0.30;;;4.00;99.90;;;;;;4918289;28;20452;-81
2022/11/29 04:26:53;;;;;;;0.30;0.30;;;4.00;99.90;;;;;;4991443;28;20539;-80
2022/11/29 04:29:46;;;;;;;0.30;0.30;;;4.00;99.90;;;;;;4970982;28;20531;-81
2022/11/29 04:32:48;;;;;;;0.33;0.33;;;4.00;99.90;;;;;;4983338;28;20461;-81
2022/11/29 04:35:19;;;;;;;0.43;0.43;;;4.00;99.90;;;;;;4968148;28;20449;-81
2022/11/29 04:38:04;;;;;;;0.30;0.30;;;4.00;99.90;;;;;;4945153;28;20514;-81
2022/11/29 04:41:02;;;;;;;0.30;0.30;;;3.90;99.90;;;;;;4953755;28;20450;-81
2022/11/29 04:43:33;;;;;;;0.40;0.40;;;4.00;99.90;;;;;;4963184;28;20450;-81
2022/11/29 04:46:23;;;;;;;0.30;0.30;;;4.00;99.90;;;;;;4939176;28;20462;-80
2022/11/29 04:49:00;;;;;;;0.40;0.40;;;4.00;99.90;;;;;;4930697;28;20550;-80
2022/11/29 04:51:51;;;;;;;0.40;0.40;;;3.90;99.90;;;;;;4950771;28;20450;-81
2022/11/29 04:54:41;;;;;;;0.30;0.30;;;3.90;99.90;;;;;;4934084;28;20533;-80
2022/11/29 04:57:32;;;;;;;0.30;0.30;;;4.00;99.90;;;;;;4962360;28;20455;-81
2022/11/29 05:00:20;;;;;;;0.30;0.30;;;4.00;99.90;;;;;;4965094;28;20846;-81
2022/11/29 05:02:55;;;;;;;0.40;0.40;;;4.00;99.90;;;;;;4974967;28;20445;-81
2022/11/29 05:05:36;;;;;;;0.40;0.40;;;4.00;99.90;;;;;;4990129;28;21006;-80
2022/11/29 05:08:39;;;;;;;0.30;0.30;;;4.00;99.90;;;;;;5003249;28;20442;-80
2022/11/29 05:11:32;;;;;;;0.30;0.30;;;4.00;99.90;;;;;;4948412;28;20451;-80
2022/11/29 05:14:16;;;;;;;0.20;0.20;;;4.00;99.90;;;;;;4966960;28;20459;-81
2022/11/29 05:16:55;;;;;;;0.40;0.40;;;3.90;99.90;;;;;;4939949;28;20451;-81
2022/11/29 05:19:44;;;;;;;0.40;0.40;;;4.00;99.90;;;;;;4952333;28;20503;-80
2022/11/29 05:22:27;;;;;;;0.40;0.40;;;4.00;99.90;;;;;;4997798;28;20463;-80
2022/11/29 05:25:01;;;;;;;0.40;0.40;;;4.00;99.90;;;;;;4935707;28;20451;-81
2022/11/29 05:27:47;;;;;;;0.40;0.40;;;4.00;99.90;;;;;;5020595;28;20453;-81
2022/11/29 05:30:18;;;;;;;0.30;0.30;;;4.00;99.90;;;;;;4939734;28;20556;-80
2022/11/29 05:33:08;;;;;;;0.30;0.30;;;4.00;99.90;;;;;;4961570;28;20453;-80
2022/11/29 05:35:52;;;;;;;0.40;0.40;;;4.00;99.90;;;;;;4942077;28;20458;-81
2022/11/29 05:38:26;;;;;;;0.30;0.30;;;4.00;99.90;;;;;;4942313;28;20446;-80
2022/11/29 05:41:18;;;;;;;0.30;0.30;;;4.00;99.90;;;;;;4968514;28;20973;-80
2022/11/29 05:44:06;;;;;;;0.30;0.30;;;3.90;99.90;;;;;;4998960;28;20444;-80
2022/11/29 05:46:34;;;;;;;0.40;0.40;;;3.90;99.90;;;;;;4921415;28;20458;-81
2022/11/29 05:49:15;;;;;;;0.30;0.30;;;3.90;99.90;;;;;;4943907;28;20460;-80
2022/11/29 05:51:54;;;;;;;0.40;0.40;;;3.90;99.90;;;;;;4974532;28;20451;-81
2022/11/29 05:54:34;;;;;;;0.30;0.30;;;3.90;99.90;;;;;;4978238;28;20474;-80
2022/11/29 05:57:20;;;;;;;0.30;0.30;;;3.90;99.90;;;;;;4980068;28;20442;-80
2022/11/29 05:59:48;;;;;;;0.30;0.30;;;4.00;99.90;;;;;;4926936;28;20494;-80
2022/11/29 06:02:26;;;;;;;0.40;0.40;;;4.00;99.90;;;;;;4933365;28;20529;-81
2022/11/29 06:05:20;;;;;;;0.30;0.30;;;4.00;99.90;;;;;;4923901;28;20494;-81
2022/11/29 06:08:05;;;;;;;0.30;0.30;;;4.00;99.90;;;;;;5001586;28;20456;-81
2022/11/29 06:10:35;;;;;;;0.30;0.30;;;4.00;99.90;;;;;;4986193;28;20490;-81
2022/11/29 06:13:20;;;;;;;0.20;0.20;;;4.00;99.90;;;;;;4925453;29;20435;-80
2022/11/29 06:16:17;;;;;;;0.30;0.30;;;4.00;99.90;;;;;;4990897;28;20482;-80
2022/11/29 06:19:04;;;;;;;0.30;0.30;;;4.00;99.90;;;;;;4927851;29;20513;-81
2022/11/29 06:21:44;;;;;;;0.27;0.27;;;4.00;99.90;;;;;;4925979;29;20608;-81
2022/11/29 06:24:38;;;;;;;0.40;0.40;;;4.00;99.90;;;;;;4929423;29;20428;-80
2022/11/29 06:27:24;;;;;;;0.40;0.40;;;4.00;99.90;;;;;;4924506;29;20456;-81
2022/11/29 06:30:10;;;;;;;0.40;0.40;;;4.00;99.90;;;;;;4922423;28;20455;-80
2022/11/29 06:32:45;;;;;;;0.40;0.40;;;4.00;99.90;;;;;;4990856;28;20444;-80
2022/11/29 06:35:32;;;;;;;0.40;0.40;;;4.00;99.90;;;;;;4926185;28;20541;-81
2022/11/29 06:38:05;;;;;;;0.30;0.30;;;4.00;99.90;;;;;;4924665;28;21006;-81
2022/11/29 06:40:31;;;;;;;0.40;0.40;;;3.90;99.90;;;;;;4927297;29;20547;-80
2022/11/29 06:42:57;;;;;;;0.30;0.30;;;3.90;99.90;;;;;;4927105;28;20953;-80
2022/11/29 06:45:23;;;;;;;0.40;0.40;;;3.90;99.90;;;;;;4926165;28;20555;-80
2022/11/29 06:47:56;;;;;;;0.30;0.30;;;3.90;99.90;;;;;;4920943;28;20664;-80
2022/11/29 06:50:28;;;;;;;0.30;0.30;;;3.90;99.90;;;;;;4990842;28;20480;-80
2022/11/29 06:53:15;;;;;;;0.40;0.40;;;3.90;99.90;;;;;;4933468;28;20478;-80
2022/11/29 06:56:05;;;;;;;0.30;0.30;;;3.90;99.90;;;;;;4925474;28;20538;-80
2022/11/29 06:59:05;;;;;;;0.40;0.40;;;3.90;99.90;;;;;;4926776;28;20903;-80
2022/11/29 07:01:57;;;;;;;0.30;0.30;;;3.90;99.90;;;;;;4927468;28;20446;-81
2022/11/29 07:04:38;;;;;;;0.30;0.30;;;3.90;99.90;;;;;;4927173;28;20455;-80
2022/11/29 07:07:12;;;;;;;0.40;0.40;;;4.00;99.90;;;;;;4992317;28;20982;-80
2022/11/29 07:09:38;;;;;;;0.30;0.30;;;4.00;99.90;;;;;;4929708;28;20457;-80
2022/11/29 07:12:04;;;;;;;0.40;0.40;;;4.00;99.90;;;;;;4928219;28;20448;-79
2022/11/29 07:14:30;;;;;;;0.40;0.40;;;4.00;99.90;;;;;;4989999;28;20454;-80
2022/11/29 07:17:18;;;;;;;0.30;0.30;;;4.00;99.90;;;;;;4924502;28;20195;-80
2022/11/29 07:19:50;;;;;;;0.30;0.30;;;4.00;99.90;;;;;;4930118;28;20270;-79
2022/11/29 07:22:38;;;;;;;0.30;0.30;;;4.00;99.90;;;;;;4988763;28;20505;-79
2022/11/29 07:25:24;;;;;;;0.30;0.30;;;4.00;99.90;;;;;;4993235;28;20455;-79
2022/11/29 07:28:04;;;;;;;0.30;0.30;;;4.00;99.90;;;;;;4928021;28;20470;-79
2022/11/29 07:31:01;;;;;;;0.27;0.27;;;4.00;99.90;;;;;;4993366;28;20596;-79
2022/11/29 07:33:39;;;;;;;0.37;0.37;;;4.00;99.90;;;;;;4977310;28;20456;-79
2022/11/29 07:36:34;;;;;;;0.30;0.30;;;4.10;99.90;;;;;;4939165;28;20608;-81
2022/11/29 07:39:18;;;;;;;0.30;0.30;;;4.00;99.90;;;;;;4938913;28;20475;-80
2022/11/29 07:42:13;;;;;;;0.30;0.30;;;4.10;99.90;;;;;;4932043;29;20439;-80
2022/11/29 07:44:52;;;;;;;0.30;0.30;;;4.10;99.90;;;;;;4919905;28;20451;-79
2022/11/29 07:47:17;;;;;;;0.30;0.30;;;4.10;99.90;;;;;;4924860;28;21081;-80
2022/11/29 07:49:43;;;;;;;0.40;0.40;;;4.00;99.90;;;;;;4930283;28;20455;-79
2022/11/29 07:52:12;;;;;;;0.40;0.40;;;4.10;99.90;;;;;;4951324;28;20199;-80
2022/11/29 07:54:38;;;;;;;0.30;0.30;;;4.10;99.90;;;;;;4932135;29;20187;-79
2022/11/29 07:57:04;;;;;;;0.30;0.30;;;4.10;99.90;;;;;;4980012;28;20447;-79
2022/11/29 07:59:29;;;;;;;0.33;0.33;;;4.10;99.90;;;;;;4929544;28;20568;-78
2022/11/29 08:01:55;;;;;;;0.30;0.30;;;4.10;99.90;;;;;;4986011;28;20274;-78
2022/11/29 08:04:20;;;;;;;0.20;0.20;;;4.10;99.90;;;;;;4933145;28;20202;-80
2022/11/29 08:06:46;;;;;;;0.30;0.30;;;4.10;99.90;;;;;;4926754;28;20546;-82
2022/11/29 08:09:12;;;;;;;0.40;0.40;;;4.10;99.90;;;;;;4930475;28;20672;-79
2022/11/29 08:11:38;;;;;;;0.40;0.40;;;4.20;99.90;;;;;;4931526;28;20559;-79
2022/11/29 08:14:04;;;;;;;0.30;0.30;;;4.20;99.90;;;;;;4928673;28;20188;-79
2022/11/29 08:16:30;;;;;;;0.30;0.30;;;4.20;99.90;;;;;;4927730;28;20444;-79
2022/11/29 08:18:55;;;;;;;0.30;0.30;;;4.20;99.90;;;;;;4927418;28;20306;-79
2022/11/29 08:21:21;;;;;;;0.30;0.30;;;4.20;99.90;;;;;;4925638;28;20447;-80
2022/11/29 08:23:48;;;;;;;0.40;0.40;;;4.20;99.90;;;;;;4929305;28;20199;-79
2022/11/29 08:26:15;;;;;;;0.40;0.40;;;4.20;99.90;;;;;;4991279;28;20195;-79
2022/11/29 08:28:41;;;;;;;0.30;0.30;;;4.20;99.90;;;;;;4930613;28;20513;-79
2022/11/29 08:31:09;;;;;;;0.30;0.30;;;4.20;99.90;;;;;;4979598;28;20971;-78
2022/11/29 08:33:36;;;;;;;0.30;0.30;;;4.20;99.90;;;;;;4986771;28;20530;-79
2022/11/29 08:36:08;;;;;;;0.30;0.30;;;4.20;99.90;;;;;;4929110;28;20451;-78
2022/11/29 08:38:34;;;;;;;0.30;0.30;;;4.20;99.90;;;;;;4979134;28;21047;-79
2022/11/29 08:41:01;;;;;;;0.30;0.30;;;4.20;99.90;;;;;;4926476;28;20460;-79
2022/11/29 08:43:27;;;;;;;0.30;0.30;;;4.20;99.90;;;;;;4929449;28;20187;-80
2022/11/29 08:45:53;;;;;;;0.30;0.30;;;4.20;99.90;;;;;;4980952;28;20543;-80
2022/11/29 08:48:18;;;;;;;0.30;0.30;;;4.20;99.90;;;;;;4929734;28;20538;-80
2022/11/29 08:50:44;;;;;;;0.30;0.30;;;4.20;99.90;;;;;;4928701;28;20191;-80
2022/11/29 08:55:58;;;;;;;0.40;0.40;;;4.30;99.90;;;;;;4930596;28;20268;-80
2022/11/29 08:58:24;;;;;;;0.30;0.30;;;4.20;99.90;;;;;;4943167;28;20513;-80
2022/11/29 09:00:50;;;;;;;0.30;0.30;;;4.30;99.90;;;;;;4934005;28;20556;-80
2022/11/29 09:06:11;;;;;;;0.40;0.40;;;4.40;99.90;;;;;;4928517;28;20693;-80
2022/11/29 09:08:37;;;;;;;0.40;0.40;;;4.40;99.90;;;;;;4938264;28;20550;-80
2022/11/29 09:11:08;;;;;;;0.40;0.40;;;4.40;99.90;;;;;;4991492;28;20610;-80
2022/11/29 09:13:33;;;;;;;0.30;0.30;;;4.40;99.90;;;;;;4990494;28;20195;-80
2022/11/29 09:16:03;;;;;;;0.30;0.30;;;4.40;99.90;;;;;;4930691;28;20779;-80
2022/11/29 09:18:29;;;;;;;0.33;0.33;;;4.40;99.90;;;;;;4951421;28;20198;-80
2022/11/29 09:20:55;;;;;;;0.20;0.20;;;4.40;99.90;;;;;;4930583;29;20428;-80
2022/11/29 09:23:20;;;;;;;0.27;0.27;;;4.40;99.90;;;;;;4930836;29;20738;-80
2022/11/29 09:25:49;;;;;;;0.33;0.33;;;4.40;99.90;;;;;;4929978;28;20240;-80
2022/11/29 09:28:14;;;;;;;0.30;0.30;;;4.40;99.90;;;;;;4923325;28;20284;-80
2022/11/29 09:30:40;;;;;;;0.30;0.30;;;4.50;99.90;;;;;;4911526;29;20519;-80
2022/11/29 09:33:05;;;;;;;0.30;0.30;;;4.50;99.90;;;;;;4927133;28;20204;-80
2022/11/29 09:35:33;;;;;;;0.30;0.30;;;4.50;99.90;;;;;;4930957;28;20553;-80
2022/11/29 09:37:59;;;;;;;0.30;0.30;;;4.50;99.90;;;;;;4929117;28;20659;-80
2022/11/29 09:40:32;;;;;;;0.30;0.30;;;4.60;99.90;;;;;;4951753;28;20479;-80
2022/11/29 09:43:03;;;;;;;0.30;0.30;;;4.50;99.90;;;;;;4943676;28;20184;-80
2022/11/29 09:45:35;;;;;;;0.30;0.30;;;4.60;99.90;;;;;;4938625;28;20923;-80
2022/11/29 09:48:27;;;;;;;0.30;0.30;;;4.60;99.90;;;;;;4955769;28;20577;-81
2022/11/29 09:51:12;;;;;;;0.37;0.37;;;4.50;99.90;;;;;;4951859;28;20443;-80
2022/11/29 09:53:50;;;;;;;0.33;0.33;;;4.70;99.90;;;;;;4929677;28;20490;-80
2022/11/29 09:56:25;;;;;;;0.33;0.33;;;4.70;99.90;;;;;;4929484;28;20537;-80
2022/11/29 09:58:59;;;;;;;0.30;0.30;;;4.60;99.90;;;;;;4951168;28;20835;-80
2022/11/29 10:01:35;;;;;;;0.40;0.40;;;4.70;99.90;;;;;;4929734;28;20482;-80
2022/11/29 10:04:04;;;;;;;0.30;0.30;;;4.70;99.90;;;;;;4985717;28;20493;-81
2022/11/29 10:06:37;;;;;;;0.30;0.30;;;4.70;99.90;;;;;;4985808;28;20452;-81
2022/11/29 10:09:23;;;;;;;0.33;0.33;;;4.70;99.90;;;;;;4975441;28;20459;-80
2022/11/29 10:12:12;;;;;;;0.30;0.30;;;4.60;99.90;;;;;;4927070;28;20455;-81
2022/11/29 10:14:46;;;;;;;0.30;0.30;;;4.70;99.90;;;;;;4990140;28;20459;-80
2022/11/29 10:17:53;;;;;;;0.20;0.20;;;4.70;99.90;;;;;;4926138;28;20439;-81
2022/11/29 10:20:28;;;;;;;0.30;0.30;;;4.70;99.90;;;;;;4925323;28;20487;-81
2022/11/29 10:22:55;;;;;;;0.30;0.30;;;4.70;99.90;;;;;;4941797;28;20446;-81
2022/11/29 10:25:23;;;;;;;0.37;0.37;;;4.70;99.90;;;;;;4923004;28;20562;-81
2022/11/29 10:27:49;;;;;;;0.30;0.30;;;4.70;99.90;;;;;;4933690;28;20447;-81
2022/11/29 10:30:16;;;;;;;0.40;0.40;;;4.60;99.90;;;;;;4932085;28;20435;-82
2022/11/29 10:32:46;;;;;;;0.30;0.30;;;4.70;99.90;;;;;;4937372;28;20191;-81
2022/11/29 10:35:18;;;;;;;0.30;0.30;;;4.80;99.90;;;;;;4929441;28;20439;-81
2022/11/29 10:37:45;;;;;;;0.30;0.30;;;4.80;99.90;;;;;;4930502;28;20516;-82
2022/11/29 10:40:17;;;;;;;0.30;0.30;;;4.80;99.90;;;;;;4931618;28;21141;-82
2022/11/29 10:42:51;;;;;;;0.30;0.30;;;4.80;99.90;;;;;;4954148;28;20446;-82
2022/11/29 10:45:21;;;;;;;0.30;0.30;;;4.90;99.90;;;;;;4930388;28;20486;-81
2022/11/29 10:47:49;;;;;;;0.30;0.30;;;4.90;99.90;;;;;;4932285;28;20446;-81
2022/11/29 10:50:27;;;;;;;0.30;0.30;;;4.90;99.90;;;;;;4931633;28;20451;-82
2022/11/29 10:53:02;;;;;;;0.30;0.30;;;4.90;99.90;;;;;;4961640;28;20485;-82
2022/11/29 10:55:35;;;;;;;0.50;0.50;;;4.80;99.90;;;;;;5012082;28;20451;-82
2022/11/29 10:58:24;;;;;;;0.30;0.30;;;4.80;99.90;;;;;;4996520;28;20965;-84
2022/11/29 11:00:53;;;;;;;0.27;0.27;;;4.80;99.90;;;;;;4918594;29;20893;-84
2022/11/29 11:04:06;;;;;;;0.37;0.37;;;4.80;99.90;;;;;;4958963;28;20494;-83
2022/11/29 11:06:58;;;;;;;0.30;0.30;;;4.80;99.90;;;;;;4951142;28;20456;-83
2022/11/29 11:09:33;;;;;;;0.30;0.30;;;4.80;99.90;;;;;;4930708;29;20451;-83
2022/11/29 11:12:01;;;;;;;0.30;0.30;;;4.80;99.90;;;;;;4927166;28;20435;-83
2022/11/29 11:14:36;;;;;;;0.30;0.30;;;4.70;99.90;;;;;;4929947;28;20474;-82
2022/11/29 11:17:25;;;;;;;0.40;0.40;;;4.70;99.90;;;;;;4932331;28;20454;-87
2022/11/29 11:20:18;;;;;;;0.40;0.40;;;4.70;99.90;;;;;;4920254;28;20488;-86
2022/11/29 11:23:05;;;;;;;0.40;0.40;;;4.70;99.90;;;;;;4919591;28;20449;-86
2022/11/29 11:25:37;;;;;;;0.30;0.30;;;4.70;99.90;;;;;;4943165;28;20443;-86
2022/11/29 11:28:20;;;;;;;0.30;0.30;;;4.70;99.90;;;;;;4949401;28;20485;-86
2022/11/29 11:31:01;;;;;;;0.23;0.23;;;4.70;99.90;;;;;;4944856;28;20455;-86
2022/11/29 11:33:30;;;;;;;0.30;0.30;;;4.70;99.90;;;;;;4934372;28;20443;-86
2022/11/29 11:36:04;;;;;;;0.27;0.27;;;4.70;99.90;;;;;;4933821;28;20820;-86
2022/11/29 11:38:31;;;;;;;0.30;0.30;;;4.70;99.90;;;;;;4990262;28;20545;-86
2022/11/29 11:41:17;;;;;;;0.30;0.30;;;4.70;99.90;;;;;;4987689;28;20513;-86
2022/11/29 11:43:55;;;;;;;0.30;0.30;;;4.80;99.90;;;;;;4941753;28;20454;-87
2022/11/29 11:46:21;;;;;;;0.30;0.30;;;4.80;99.90;;;;;;4930742;29;21012;-86
2022/11/29 11:48:48;;;;;;;0.23;0.23;;;4.80;99.90;;;;;;4991492;28;20436;-86
2022/11/29 11:51:24;;;;;;;0.30;0.30;;;4.80;99.90;;;;;;4928158;28;20574;-87
2022/11/29 11:53:54;;;;;;;0.30;0.30;;;4.80;99.90;;;;;;4929764;28;21060;-86
2022/11/29 11:56:21;;;;;;;0.30;0.30;;;4.70;99.90;;;;;;4929140;28;20509;-86
2022/11/29 11:58:55;;;;;;;0.40;0.40;;;4.70;99.90;;;;;;4947939;28;20471;-86
2022/11/29 12:01:36;;;;;;;0.20;0.20;;;4.70;99.90;;;;;;4994477;28;20459;-85
2022/11/29 12:04:18;;;;;;;0.30;0.30;;;4.70;99.90;;;;;;4940240;28;20534;-86
2022/11/29 12:06:53;;;;;;;0.30;0.30;;;4.70;99.90;;;;;;4931404;29;20427;-86
2022/11/29 12:09:26;;;;;;;0.30;0.30;;;4.70;99.90;;;;;;4937137;28;20453;-87
2022/11/29 12:11:59;;;;;;;0.30;0.30;;;4.70;99.90;;;;;;4929378;28;20455;-86
2022/11/29 12:14:45;;;;;;;0.30;0.30;;;4.70;99.90;;;;;;4925143;28;20467;-86
2022/11/29 12:17:25;;;;;;;0.30;0.30;;;4.70;99.90;;;;;;4911242;28;20458;-86
2022/11/29 12:19:59;;;;;;;0.30;0.30;;;4.80;99.90;;;;;;4935752;28;20521;-86
2022/11/29 12:22:32;;;;;;;0.30;0.30;;;4.70;99.90;;;;;;4930102;28;20451;-87
2022/11/29 12:25:04;;;;;;;0.30;0.30;;;4.70;99.90;;;;;;4935413;28;20558;-86
2022/11/29 12:27:30;;;;;;;0.30;0.30;;;4.70;99.90;;;;;;4996952;28;20448;-87
2022/11/29 12:29:56;;;;;;;0.30;0.30;;;4.80;99.90;;;;;;4991093;28;20451;-88
2022/11/29 12:32:50;;;;;;;0.30;0.30;;;4.80;99.90;;;;;;4981963;28;20446;-88
2022/11/29 12:35:33;;;;;;;0.30;0.30;;;4.80;99.90;;;;;;4963916;28;20200;-87
2022/11/29 12:38:32;;;;;;;0.30;0.30;;;4.80;99.90;;;;;;4926532;28;20449;-87
2022/11/29 12:41:33;;;;;;;0.30;0.30;;;4.80;99.90;;;;;;4928946;28;20978;-87
2022/11/29 12:44:04;;;;;;;0.30;0.30;;;4.80;99.90;;;;;;4979133;28;20458;-88
2022/11/29 12:46:31;;;;;;;0.30;0.30;;;4.80;99.90;;;;;;4985920;28;20542;-88
2022/11/29 12:49:30;;;;;;;0.30;0.30;;;4.80;99.90;;;;;;4930167;28;20455;-87
2022/11/29 12:52:17;;;;;;;0.40;0.40;;;4.80;99.90;;;;;;5008996;28;20475;-88
2022/11/29 12:55:16;;;;;;;0.30;0.30;;;4.80;99.90;;;;;;4930453;28;20451;-88
2022/11/29 12:57:58;;;;;;;0.40;0.40;;;4.80;99.90;;;;;;4981364;28;20447;-88
2022/11/29 13:00:28;;;;;;;0.40;0.40;;;4.90;99.90;;;;;;4930013;28;20514;-88
2022/11/29 13:03:09;;;;;;;0.30;0.30;;;4.80;99.90;;;;;;4929415;28;20451;-87
2022/11/29 13:05:54;;;;;;;0.30;0.30;;;4.80;99.90;;;;;;4923572;28;20804;-87
2022/11/29 13:08:58;;;;;;;0.30;0.30;;;4.80;99.90;;;;;;4991752;28;20439;-86
2022/11/29 13:11:33;;;;;;;0.30;0.30;;;4.90;99.90;;;;;;4991551;28;20456;-88
2022/11/29 13:14:32;;;;;;;0.30;0.30;;;4.90;99.90;;;;;;4925721;28;20453;-87
2022/11/29 13:17:02;;;;;;;0.30;0.30;;;4.90;99.90;;;;;;4926576;28;20967;-86
2022/11/29 13:19:52;;;;;;;0.30;0.30;;;4.90;99.90;;;;;;4995469;28;20477;-88
2022/11/29 13:22:53;;;;;;;0.33;0.33;;;4.90;99.90;;;;;;4954201;28;20466;-87
2022/11/29 13:25:31;;;;;;;0.30;0.30;;;4.80;99.90;;;;;;4930472;28;20446;-86
2022/11/29 13:28:01;;;;;;;0.30;0.30;;;4.90;99.90;;;;;;4936531;28;20504;-86
2022/11/29 13:30:27;;;;;;;0.27;0.27;;;4.80;99.90;;;;;;4950693;28;20446;-86
2022/11/29 13:33:02;;;;;;;0.30;0.30;;;4.80;99.90;;;;;;4924592;28;20452;-87
2022/11/29 13:36:06;;;;;;;0.30;0.30;;;4.80;99.90;;;;;;4989892;28;20198;-86
2022/11/29 13:38:40;;;;;;;0.30;0.30;;;4.90;99.90;;;;;;4923624;28;20486;-87
2022/11/29 13:41:24;;;;;;;0.20;0.20;;;4.80;99.90;;;;;;4994266;28;20455;-85
2022/11/29 13:44:18;;;;;;;0.20;0.20;;;4.80;99.90;;;;;;4926682;28;20479;-86
2022/11/29 13:47:07;;;;;;;0.30;0.30;;;4.80;99.90;;;;;;4923595;28;20542;-87
2022/11/29 13:49:56;;;;;;;0.30;0.30;;;4.80;99.90;;;;;;4986994;28;20451;-87
2022/11/29 13:52:37;;;;;;;0.30;0.30;;;4.70;99.90;;;;;;5011889;28;20451;-85
2022/11/29 13:55:04;;;;;;;0.30;0.30;;;4.80;99.90;;;;;;4995210;28;20435;-87